Time;durP1;ratioP1;P1;durP2;ratioP2;P2;SDS_P1;SDS_P2;PMS_P1;PMS_P2;Temp;Humidity;BMP_temperature;BMP_pressure;BME280_temperature;BME280_humidity;BME280_pressure;Samples;Min_cycle;Max_cycle;Signal;HPM_P1;HPM_P2
2023/11/18 00:00:51;;;;;;;;;;;;;;;20.85;26.61;98096.31;5091018;28;19920;-88
2023/11/18 00:03:17;;;;;;;;;;;;;;;21.49;25.33;98090.91;5088033;28;19920;-88
2023/11/18 00:05:43;;;;;;;;;;;;;;;22.07;24.65;98098.22;5083640;28;19973;-89
2023/11/18 00:08:09;;;;;;;;;;;;;;;19.78;28.36;98104.53;5088076;28;19927;-89
2023/11/18 00:10:35;;;;;;;;;;;;;;;19.97;27.67;98089.34;5078852;28;20007;-89
2023/11/18 00:13:03;;;;;;;;;;;;;;;19.20;28.96;98102.31;5089540;28;20632;-89
2023/11/18 00:15:29;;;;;;;;;;;;;;;20.02;27.58;98102.03;5089082;28;20372;-89
2023/11/18 00:17:55;;;;;;;;;;;;;;;21.22;25.87;98102.75;5089138;28;19916;-89
2023/11/18 00:20:23;;;;;;;;;;;;;;;20.64;26.67;98111.22;5084924;28;19920;-89
2023/11/18 00:22:51;;;;;;;;;;;;;;;20.63;26.68;98112.44;5087859;28;19924;-89
2023/11/18 00:25:17;;;;;;;;;;;;;;;21.59;25.58;98106.75;5089233;28;20010;-89
2023/11/18 00:27:43;;;;;;;;;;;;;;;21.45;25.63;98116.09;5088439;28;19920;-89
2023/11/18 00:30:10;;;;;;;;;;;;;;;20.99;26.30;98112.94;5075249;28;19926;-88
2023/11/18 00:32:37;;;;;;;;;;;;;;;21.56;25.65;98108.41;5084417;28;19916;-89
2023/11/18 00:35:05;;;;;;;;;;;;;;;22.26;24.72;98103.94;5093773;28;19975;-89
2023/11/18 00:37:32;;;;;;;;;;;;;;;21.97;25.03;98109.13;5085989;28;20015;-87
2023/11/18 00:39:59;;;;;;;;;;;;;;;22.98;23.76;98118.44;5082009;28;19920;-88
2023/11/18 00:42:25;;;;;;;;;;;;;;;23.09;23.59;98116.22;5078334;28;19920;-88
2023/11/18 00:44:51;;;;;;;;;;;;;;;22.82;24.09;98123.91;5086952;28;19916;-88
2023/11/18 00:47:17;;;;;;;;;;;;;;;23.29;23.63;98120.66;5082987;28;19920;-88
2023/11/18 00:49:43;;;;;;;;;;;;;;;23.68;23.15;98119.97;5086377;28;19920;-87
2023/11/18 00:52:09;;;;;;;;;;;;;;;23.69;22.97;98124.34;5085948;28;19921;-89
2023/11/18 00:54:36;;;;;;;;;;;;;;;22.63;24.13;98123.41;5078384;28;19985;-89
2023/11/18 00:57:03;;;;;;;;;;;;;;;22.19;24.70;98131.19;5085140;28;20299;-89
2023/11/18 00:59:29;;;;;;;;;;;;;;;22.83;24.13;98122.66;5093229;28;19931;-89
2023/11/18 01:01:55;;;;;;;;;;;;;;;22.36;24.71;98121.75;5081741;28;19921;-88
2023/11/18 01:04:21;;;;;;;;;;;;;;;21.08;25.83;98133.59;5085476;28;19920;-89
2023/11/18 01:06:48;;;;;;;;;;;;;;;21.76;25.23;98128.91;5076337;28;19935;-89
2023/11/18 01:09:16;;;;;;;;;;;;;;;22.63;24.03;98126.19;5083437;28;19921;-89
2023/11/18 01:11:42;;;;;;;;;;;;;;;22.44;24.43;98126.84;5083953;28;20280;-89
2023/11/18 01:14:08;;;;;;;;;;;;;;;21.74;25.36;98138.91;5083253;28;19935;-89
2023/11/18 01:16:34;;;;;;;;;;;;;;;23.00;23.89;98127.19;5079044;28;19920;-89
2023/11/18 01:19:00;;;;;;;;;;;;;;;23.30;23.33;98127.88;5087678;28;20010;-89
2023/11/18 01:21:27;;;;;;;;;;;;;;;22.47;24.30;98123.22;5090706;28;19927;-87
2023/11/18 01:23:53;;;;;;;;;;;;;;;21.65;25.29;98133.03;5080338;28;19928;-88
2023/11/18 01:26:19;;;;;;;;;;;;;;;21.77;25.26;98138.09;5089798;28;19954;-89
2023/11/18 01:28:46;;;;;;;;;;;;;;;23.17;23.51;98131.72;5059690;28;19920;-89
2023/11/18 01:31:13;;;;;;;;;;;;;;;23.76;23.04;98129.81;5085713;28;19939;-90
2023/11/18 01:33:40;;;;;;;;;;;;;;;24.07;22.47;98127.59;5087193;28;20356;-89
2023/11/18 01:36:08;;;;;;;;;;;;;;;23.60;22.84;98123.31;5077146;28;20313;-89
2023/11/18 01:38:34;;;;;;;;;;;;;;;23.30;23.20;98122.25;5081091;28;19921;-89
2023/11/18 01:41:00;;;;;;;;;;;;;;;23.02;23.69;98124.75;5082423;28;19920;-90
2023/11/18 01:43:27;;;;;;;;;;;;;;;22.43;24.49;98119.66;5080593;28;19928;-89
2023/11/18 01:45:53;;;;;;;;;;;;;;;21.58;26.19;98130.31;5068049;28;19967;-88
2023/11/18 01:48:22;;;;;;;;;;;;;;;22.54;24.45;98125.09;5088165;28;19921;-90
2023/11/18 01:50:49;;;;;;;;;;;;;;;23.38;23.56;98112.50;5082188;28;19920;-90
2023/11/18 01:53:15;;;;;;;;;;;;;;;22.15;24.89;98117.25;5082972;28;19925;-88
2023/11/18 01:55:42;;;;;;;;;;;;;;;22.48;24.54;98113.59;5089381;28;20019;-89
2023/11/18 01:58:10;;;;;;;;;;;;;;;22.32;24.85;98115.44;5091521;28;19966;-89
2023/11/18 02:00:39;;;;;;;;;;;;;;;23.16;24.01;98110.50;5080495;28;20023;-89
2023/11/18 02:03:05;;;;;;;;;;;;;;;23.72;23.22;98120.69;5078827;28;20264;-89
2023/11/18 02:05:35;;;;;;;;;;;;;;;23.90;23.15;98118.31;5086588;28;20414;-89
2023/11/18 02:08:06;;;;;;;;;;;;;;;24.18;22.65;98122.56;5063462;28;19928;-89
2023/11/18 02:10:47;;;;;;;;;;;;;;;23.69;23.33;98121.53;5085931;28;19924;-90
2023/11/18 02:13:20;;;;;;;;;;;;;;;22.87;24.30;98127.00;5083719;28;19920;-88
2023/11/18 02:15:46;;;;;;;;;;;;;;;22.97;24.19;98114.84;5085856;28;20013;-88
2023/11/18 02:18:12;;;;;;;;;;;;;;;23.65;23.65;98120.81;5082991;28;19919;-89
2023/11/18 02:20:39;;;;;;;;;;;;;;;24.44;22.64;98115.16;5083942;28;20010;-88
2023/11/18 02:23:07;;;;;;;;;;;;;;;24.22;22.64;98117.69;5085052;28;19931;-88
2023/11/18 02:25:34;;;;;;;;;;;;;;;23.60;23.41;98124.13;5085022;28;20463;-88
2023/11/18 02:28:00;;;;;;;;;;;;;;;23.21;24.10;98124.81;5085398;28;19920;-88
2023/11/18 02:30:27;;;;;;;;;;;;;;;23.29;24.00;98123.47;5076537;28;20240;-89
2023/11/18 02:32:59;;;;;;;;;;;;;;;23.81;23.41;98117.28;5087775;28;19951;-89
2023/11/18 02:35:26;;;;;;;;;;;;;;;23.81;23.48;98128.50;5089545;28;20023;-89
2023/11/18 02:37:54;;;;;;;;;;;;;;;24.03;23.11;98124.06;5085577;28;19924;-89
2023/11/18 02:40:25;;;;;;;;;;;;;;;23.56;23.70;98129.00;5078152;28;19934;-90
2023/11/18 02:42:52;;;;;;;;;;;;;;;23.88;23.30;98120.75;5091365;28;19924;-87
2023/11/18 02:45:19;;;;;;;;;;;;;;;23.60;23.58;98132.53;5084169;28;19928;-87
2023/11/18 02:47:45;;;;;;;;;;;;;;;22.77;24.87;98133.56;5087449;28;19928;-88
2023/11/18 02:50:11;;;;;;;;;;;;;;;22.27;25.57;98130.69;5092814;28;19935;-88
2023/11/18 02:52:37;;;;;;;;;;;;;;;21.23;26.87;98134.28;5084343;28;19974;-89
2023/11/18 02:55:06;;;;;;;;;;;;;;;22.25;25.31;98123.91;5091189;28;20015;-89
2023/11/18 02:57:32;;;;;;;;;;;;;;;23.45;24.14;98128.44;5088446;28;19924;-90
2023/11/18 03:00:00;;;;;;;;;;;;;;;23.22;24.15;98132.00;5093304;28;19924;-90
2023/11/18 03:02:29;;;;;;;;;;;;;;;23.00;24.68;98138.41;5086163;28;19944;-88
2023/11/18 03:04:55;;;;;;;;;;;;;;;23.33;24.15;98140.22;5095850;28;19924;-88
2023/11/18 03:07:21;;;;;;;;;;;;;;;23.44;24.26;98142.84;5080416;28;20006;-89
2023/11/18 03:09:48;;;;;;;;;;;;;;;24.04;23.61;98137.66;5084878;28;19943;-89
2023/11/18 03:12:14;;;;;;;;;;;;;;;22.30;25.33;98146.63;5093522;28;20019;-89
2023/11/18 03:14:40;;;;;;;;;;;;;;;22.34;25.09;98144.56;5087852;28;19924;-89
2023/11/18 03:17:06;;;;;;;;;;;;;;;22.66;25.10;98147.72;5091598;28;19916;-89
2023/11/18 03:19:34;;;;;;;;;;;;;;;22.60;25.28;98148.59;5087037;28;20016;-88
2023/11/18 03:22:01;;;;;;;;;;;;;;;22.40;25.29;98156.88;5088214;28;20346;-90
2023/11/18 03:24:28;;;;;;;;;;;;;;;21.42;26.58;98163.63;5091444;28;19924;-89
2023/11/18 03:26:55;;;;;;;;;;;;;;;22.04;25.98;98158.56;5086487;28;20350;-89
2023/11/18 03:29:21;;;;;;;;;;;;;;;22.40;25.41;98156.88;5086424;28;20475;-90
2023/11/18 03:31:48;;;;;;;;;;;;;;;21.49;26.63;98157.97;5088136;28;19943;-90
2023/11/18 03:34:19;;;;;;;;;;;;;;;20.99;27.50;98165.97;5093943;28;19928;-90
2023/11/18 03:36:49;;;;;;;;;;;;;;;20.99;27.31;98163.16;5084514;28;19926;-88
2023/11/18 03:39:15;;;;;;;;;;;;;;;22.13;25.78;98164.44;5094744;28;20007;-89
2023/11/18 03:41:44;;;;;;;;;;;;;;;21.94;26.06;98165.84;5095503;28;19924;-89
2023/11/18 03:44:11;;;;;;;;;;;;;;;21.43;26.59;98160.41;5093435;28;19977;-89
2023/11/18 03:46:37;;;;;;;;;;;;;;;20.67;27.91;98157.84;5090908;28;19920;-89
2023/11/18 03:49:03;;;;;;;;;;;;;;;21.19;27.22;98165.00;5083019;28;20011;-89
2023/11/18 03:51:29;;;;;;;;;;;;;;;21.89;26.13;98165.53;5083426;28;20405;-89
2023/11/18 03:53:55;;;;;;;;;;;;;;;21.22;27.35;98172.56;5088537;28;19947;-88
2023/11/18 03:56:21;;;;;;;;;;;;;;;21.32;26.88;98174.47;5079508;28;20002;-90
2023/11/18 03:58:48;;;;;;;;;;;;;;;22.11;25.80;98168.84;5091207;28;19920;-90
2023/11/18 04:01:28;;;;;;;;;;;;;;;23.07;24.92;98177.47;5069340;28;19927;-90
2023/11/18 04:03:54;;;;;;;;;;;;;;;22.75;25.07;98169.59;5087786;28;19920;-90
2023/11/18 04:06:21;;;;;;;;;;;;;;;22.00;26.15;98189.38;5066446;28;20295;-90
2023/11/18 04:08:48;;;;;;;;;;;;;;;22.45;25.32;98180.81;5099271;28;19919;-90
2023/11/18 04:11:14;;;;;;;;;;;;;;;21.43;26.99;98190.31;5091442;28;20303;-88
2023/11/18 04:13:43;;;;;;;;;;;;;;;20.85;27.77;98185.59;5078256;28;19920;-89
2023/11/18 04:16:10;;;;;;;;;;;;;;;21.50;26.92;98182.69;5088803;28;19976;-88
2023/11/18 04:18:36;;;;;;;;;;;;;;;19.74;29.37;98178.19;5090361;28;19999;-89
2023/11/18 04:21:02;;;;;;;;;;;;;;;21.46;27.12;98179.13;5085108;28;19974;-90
2023/11/18 04:23:28;;;;;;;;;;;;;;;22.26;26.04;98168.28;5088193;28;19924;-89
2023/11/18 04:25:55;;;;;;;;;;;;;;;22.81;25.05;98169.91;5081826;28;19967;-90
2023/11/18 04:28:21;;;;;;;;;;;;;;;22.79;25.19;98170.34;5075665;28;20283;-89
2023/11/18 04:30:47;;;;;;;;;;;;;;;21.78;26.57;98178.78;5086133;28;19947;-88
2023/11/18 04:33:14;;;;;;;;;;;;;;;22.37;25.93;98177.31;5083859;28;19928;-89
2023/11/18 04:35:40;;;;;;;;;;;;;;;21.05;27.30;98184.69;5083013;28;19921;-89
2023/11/18 04:38:06;;;;;;;;;;;;;;;21.81;26.43;98175.16;5082873;28;19920;-89
2023/11/18 04:40:32;;;;;;;;;;;;;;;22.44;25.47;98174.41;5085496;28;19931;-88
2023/11/18 04:43:00;;;;;;;;;;;;;;;22.47;25.38;98183.97;5091947;28;19920;-88
2023/11/18 04:45:26;;;;;;;;;;;;;;;21.10;27.45;98181.44;5092094;28;20027;-87
2023/11/18 04:47:54;;;;;;;;;;;;;;;21.29;27.04;98178.09;5079380;28;19931;-88
2023/11/18 04:50:20;;;;;;;;;;;;;;;21.71;26.42;98179.66;5090307;28;19920;-86
2023/11/18 04:52:46;;;;;;;;;;;;;;;21.35;26.92;98179.22;5087518;28;20268;-88
2023/11/18 04:55:15;;;;;;;;;;;;;;;22.13;25.87;98180.41;5077682;28;19924;-88
2023/11/18 04:57:41;;;;;;;;;;;;;;;22.27;25.60;98178.22;5080697;28;20003;-88
2023/11/18 05:00:11;;;;;;;;;;;;;;;21.50;26.85;98181.88;5086117;28;19920;-89
2023/11/18 05:02:40;;;;;;;;;;;;;;;21.90;26.33;98189.47;5083389;28;19920;-90
2023/11/18 05:05:06;;;;;;;;;;;;;;;21.59;26.66;98196.97;5083111;28;19920;-89
2023/11/18 05:07:33;;;;;;;;;;;;;;;20.86;27.31;98192.78;5077545;28;19920;-89
2023/11/18 05:09:59;;;;;;;;;;;;;;;21.27;26.98;98193.66;5091562;28;20019;-89
2023/11/18 05:12:25;;;;;;;;;;;;;;;20.87;27.59;98197.94;5082911;28;19920;-89
2023/11/18 05:14:51;;;;;;;;;;;;;;;21.04;27.44;98196.22;5090584;28;19916;-90
2023/11/18 05:17:17;;;;;;;;;;;;;;;20.34;29.01;98198.28;5077657;28;19924;-89
2023/11/18 05:19:44;;;;;;;;;;;;;;;19.39;30.02;98198.56;5094157;28;19959;-89
2023/11/18 05:22:10;;;;;;;;;;;;;;;20.38;28.28;98199.06;5080086;28;19924;-89
2023/11/18 05:24:36;;;;;;;;;;;;;;;20.38;28.28;98204.63;5078481;28;19938;-89
2023/11/18 05:27:02;;;;;;;;;;;;;;;20.63;27.84;98204.50;5086231;28;19928;-88
2023/11/18 05:29:28;;;;;;;;;;;;;;;20.80;27.62;98205.56;5093826;28;19923;-89
2023/11/18 05:31:55;;;;;;;;;;;;;;;21.54;26.29;98205.00;5088922;28;20014;-89
2023/11/18 05:34:21;;;;;;;;;;;;;;;21.98;25.82;98216.91;5083431;28;20007;-89
2023/11/18 05:36:48;;;;;;;;;;;;;;;22.12;25.53;98202.00;5089688;28;20394;-89
2023/11/18 05:39:20;;;;;;;;;;;;;;;22.21;25.45;98215.47;5068009;28;19920;-88
2023/11/18 05:41:49;;;;;;;;;;;;;;;21.94;26.08;98215.38;5083682;28;19928;-88
2023/11/18 05:44:19;;;;;;;;;;;;;;;21.84;26.10;98214.28;5080635;28;19973;-89
2023/11/18 05:46:51;;;;;;;;;;;;;;;21.59;26.50;98210.13;5089164;28;20261;-88
2023/11/18 05:49:17;;;;;;;;;;;;;;;21.81;26.33;98206.72;5077067;28;20558;-89
2023/11/18 05:51:45;;;;;;;;;;;;;;;21.18;27.00;98215.69;5088247;28;19919;-89
2023/11/18 05:54:11;;;;;;;;;;;;;;;22.02;25.90;98226.09;5085158;28;20119;-89
2023/11/18 05:56:37;;;;;;;;;;;;;;;21.91;25.98;98227.41;5083350;28;20007;-88
2023/11/18 05:59:03;;;;;;;;;;;;;;;22.42;25.31;98227.19;5083752;28;19924;-89
2023/11/18 06:01:30;;;;;;;;;;;;;;;22.49;25.21;98224.31;5083118;28;19966;-89
2023/11/18 06:03:56;;;;;;;;;;;;;;;22.22;25.59;98226.22;5093025;28;20022;-89
2023/11/18 06:06:22;;;;;;;;;;;;;;;21.97;25.96;98231.31;5076390;28;20006;-89
2023/11/18 06:08:49;;;;;;;;;;;;;;;22.57;25.33;98228.56;5091509;28;19928;-89
2023/11/18 06:11:15;;;;;;;;;;;;;;;22.49;25.37;98229.09;5093768;28;19970;-89
2023/11/18 06:13:48;;;;;;;;;;;;;;;23.00;24.76;98223.19;5095975;28;20425;-90
2023/11/18 06:16:20;;;;;;;;;;;;;;;23.23;24.52;98226.03;5086208;28;19927;-90
2023/11/18 06:18:46;;;;;;;;;;;;;;;23.20;24.54;98224.06;5092446;28;20088;-90
2023/11/18 06:21:14;;;;;;;;;;;;;;;23.00;24.82;98233.59;5091192;28;20287;-89
2023/11/18 06:23:41;;;;;;;;;;;;;;;23.29;24.40;98229.94;5068322;28;20144;-89
2023/11/18 06:26:09;;;;;;;;;;;;;;;23.45;23.96;98232.13;5093688;28;19943;-89
2023/11/18 06:28:37;;;;;;;;;;;;;;;23.73;24.04;98240.03;5083833;28;19916;-89
2023/11/18 06:31:03;;;;;;;;;;;;;;;24.16;23.22;98242.84;5082636;28;20395;-90
2023/11/18 06:33:29;;;;;;;;;;;;;;;24.00;23.48;98243.53;5093880;28;19920;-89
2023/11/18 06:35:56;;;;;;;;;;;;;;;;;;5082694;28;20011;-89
2023/11/18 06:38:22;;;;;;;;;;;;;;;23.79;23.71;98246.72;5088794;28;19935;-89
2023/11/18 06:40:52;;;;;;;;;;;;;;;23.39;24.35;98253.41;5089163;28;20438;-90
2023/11/18 06:43:19;;;;;;;;;;;;;;;23.56;23.93;98252.34;5085221;28;19943;-89
2023/11/18 06:45:46;;;;;;;;;;;;;;;23.68;23.88;98254.53;5080167;28;19930;-88
2023/11/18 06:48:14;;;;;;;;;;;;;;;23.20;24.29;98252.09;5093861;28;19928;-90
2023/11/18 06:50:43;;;;;;;;;;;;;;;23.58;23.72;98254.69;5086798;28;19927;-89
2023/11/18 06:53:11;;;;;;;;;;;;;;;23.33;24.26;98255.09;5089315;28;19977;-89
2023/11/18 06:55:37;;;;;;;;;;;;;;;21.90;26.42;98257.34;5098849;28;19932;-89
2023/11/18 06:58:03;;;;;;;;;;;;;;;21.07;27.08;98262.44;5089518;28;19920;-89
2023/11/18 07:00:29;;;;;;;;;;;;;;;22.13;26.02;98262.31;5084723;28;19921;-93
2023/11/18 07:02:56;;;;;;;;;;;;;;;22.09;25.58;98255.97;5071452;28;19956;-90
2023/11/18 07:05:24;;;;;;;;;;;;;;;22.23;25.62;98266.19;5088145;28;20399;-88
2023/11/18 07:07:50;;;;;;;;;;;;;;;21.94;25.99;98272.09;5089823;28;19989;-90
2023/11/18 07:10:20;;;;;;;;;;;;;;;21.97;25.73;98279.66;5092792;28;19916;-91
2023/11/18 07:12:47;;;;;;;;;;;;;;;22.76;25.12;98279.53;5085496;28;19943;-89
2023/11/18 07:15:14;;;;;;;;;;;;;;;23.43;24.41;98276.59;5088605;28;19924;-90
2023/11/18 07:17:40;;;;;;;;;;;;;;;23.22;24.50;98276.91;5083002;28;20018;-87
2023/11/18 07:20:07;;;;;;;;;;;;;;;23.61;23.92;98273.47;5070080;28;19927;-90
2023/11/18 07:22:34;;;;;;;;;;;;;;;21.83;26.30;98278.97;5080832;28;20426;-90
2023/11/18 07:25:00;;;;;;;;;;;;;;;22.37;25.75;98283.59;5082323;28;19978;-90
2023/11/18 07:27:26;;;;;;;;;;;;;;;22.65;25.34;98282.50;5090952;28;19924;-91
2023/11/18 07:29:52;;;;;;;;;;;;;;;22.17;25.79;98277.03;5082388;28;19974;-92
2023/11/18 07:32:19;;;;;;;;;;;;;;;20.56;28.06;98279.84;5093186;28;20275;-88
2023/11/18 07:34:45;;;;;;;;;;;;;;;20.23;28.90;98286.75;5085895;28;19920;-89
2023/11/18 07:37:12;;;;;;;;;;;;;;;19.13;30.06;98288.78;5077810;28;19924;-89
2023/11/18 07:39:44;;;;;;;;;;;;;;;17.82;31.84;98306.09;5091296;28;19924;-89
2023/11/18 07:42:11;;;;;;;;;;;;;;;18.85;30.42;98313.78;5084968;28;19966;-88
2023/11/18 07:44:41;;;;;;;;;;;;;;;19.18;29.90;98301.53;5082228;28;20318;-89
2023/11/18 07:47:07;;;;;;;;;;;;;;;21.10;27.38;98295.91;5086537;28;19924;-89
2023/11/18 07:49:35;;;;;;;;;;;;;;;21.22;26.61;98306.59;5089226;28;20375;-89
2023/11/18 07:52:02;;;;;;;;;;;;;;;20.37;28.37;98297.88;5088343;28;19924;-89
2023/11/18 07:54:28;;;;;;;;;;;;;;;20.06;28.50;98304.28;5090392;28;20014;-88
2023/11/18 07:56:54;;;;;;;;;;;;;;;20.20;29.11;98303.44;5077993;28;19943;-90
2023/11/18 07:59:20;;;;;;;;;;;;;;;21.01;28.07;98295.53;5084266;28;19921;-89
2023/11/18 08:01:46;;;;;;;;;;;;;;;21.92;26.52;98304.47;5081137;28;19920;-87
2023/11/18 08:04:13;;;;;;;;;;;;;;;20.72;27.97;98310.88;5081922;28;20080;-86
2023/11/18 08:06:40;;;;;;;;;;;;;;;21.03;27.40;98312.69;5086605;28;19928;-90
2023/11/18 08:09:12;;;;;;;;;;;;;;;21.19;26.66;98309.44;5088802;28;19924;-89
2023/11/18 08:11:41;;;;;;;;;;;;;;;21.37;26.90;98323.25;5089701;28;19928;-91
2023/11/18 08:14:07;;;;;;;;;;;;;;;20.71;27.51;98322.41;5083821;28;19916;-90
2023/11/18 08:16:34;;;;;;;;;;;;;;;20.79;27.03;98312.81;5089983;28;20335;-89
2023/11/18 08:19:02;;;;;;;;;;;;;;;20.49;26.88;98335.69;5088037;28;20395;-89
2023/11/18 08:21:28;;;;;;;;;;;;;;;18.18;32.49;98335.69;5084260;28;19920;-90
2023/11/18 08:23:55;;;;;;;;;;;;;;;19.42;28.93;98330.59;5088591;28;20306;-90
2023/11/18 08:26:21;;;;;;;;;;;;;;;20.50;27.18;98328.88;5087686;28;20379;-88
2023/11/18 08:28:47;;;;;;;;;;;;;;;21.56;25.84;98333.91;5086247;28;19920;-89
2023/11/18 08:31:17;;;;;;;;;;;;;;;21.89;25.47;98331.22;5085190;28;20379;-89
2023/11/18 08:33:43;;;;;;;;;;;;;;;21.38;26.17;98333.25;5089235;28;19987;-87
2023/11/18 08:36:09;;;;;;;;;;;;;;;23.01;24.38;98336.78;5071187;28;19920;-88
2023/11/18 08:38:35;;;;;;;;;;;;;;;22.91;24.76;98331.34;5082519;28;20329;-89
2023/11/18 08:41:01;;;;;;;;;;;;;;;23.02;24.11;98341.19;5084237;28;19920;-89
2023/11/18 08:43:30;;;;;;;;;;;;;;;23.47;23.81;98333.38;5082015;28;19974;-92
2023/11/18 08:45:56;;;;;;;;;;;;;;;23.79;22.96;98327.22;5077493;28;20244;-92
2023/11/18 08:48:22;;;;;;;;;;;;;;;23.68;23.23;98337.84;5091420;28;19920;-93
2023/11/18 08:50:48;;;;;;;;;;;;;;;22.99;23.49;98344.81;5084738;28;19921;-92
2023/11/18 08:53:17;;;;;;;;;;;;;;;23.38;23.25;98343.50;5090934;28;19925;-93
2023/11/18 08:55:56;;;;;;;;;;;;;;;22.18;24.52;98351.34;5083955;28;20019;-93
2023/11/18 08:58:22;;;;;;;;;;;;;;;22.21;24.34;98353.31;5083107;28;20062;-93
2023/11/18 09:00:53;;;;;;;;;;;;;;;23.06;23.48;98355.13;5086593;28;19920;-92
2023/11/18 09:06:25;;;;;;;;;;;;;;;23.53;23.32;98359.69;5067129;28;19973;-89
2023/11/18 09:08:54;;;;;;;;;;;;;;;22.81;24.81;98368.66;5088415;28;19916;-89
2023/11/18 09:11:22;;;;;;;;;;;;;;;21.22;25.89;98376.41;5087755;28;19920;-95
2023/11/18 09:13:51;;;;;;;;;;;;;;;21.32;25.99;98360.81;5085648;28;19920;-94
2023/11/18 09:16:17;;;;;;;;;;;;;;;20.17;28.43;98376.72;5090352;28;19944;-92
2023/11/18 09:18:47;;;;;;;;;;;;;;;19.26;30.66;98378.25;5080186;28;19924;-92
2023/11/18 09:21:19;;;;;;;;;;;;;;;21.07;26.73;98374.13;5078736;28;19921;-95
2023/11/18 09:23:47;;;;;;;;;;;;;;;20.97;27.03;98380.50;5083275;28;19924;-93
2023/11/18 09:26:14;;;;;;;;;;;;;;;20.65;27.46;98380.66;5085957;28;20338;-89
2023/11/18 09:28:40;;;;;;;;;;;;;;;22.30;25.25;98383.59;5086752;28;19970;-88
2023/11/18 09:31:11;;;;;;;;;;;;;;;21.94;25.63;98381.13;5090151;28;20393;-90
2023/11/18 09:33:39;;;;;;;;;;;;;;;21.66;25.85;98377.72;5097632;28;19974;-90
2023/11/18 09:36:07;;;;;;;;;;;;;;;21.18;26.77;98381.22;5088528;28;19920;-89
2023/11/18 09:38:35;;;;;;;;;;;;;;;22.03;25.54;98384.22;5076438;28;19924;-89
2023/11/18 09:41:03;;;;;;;;;;;;;;;22.55;25.12;98379.31;5091147;28;19946;-88
2023/11/18 09:43:32;;;;;;;;;;;;;;;23.33;24.15;98383.97;5079039;28;19921;-89
2023/11/18 09:46:03;;;;;;;;;;;;;;;23.01;24.19;98392.03;5083691;28;19920;-91
2023/11/18 09:48:38;;;;;;;;;;;;;;;22.67;24.73;98394.81;5074886;28;20272;-88
2023/11/18 09:51:07;;;;;;;;;;;;;;;23.04;24.43;98396.75;5088496;28;19920;-89
2023/11/18 09:53:37;;;;;;;;;;;;;;;21.23;27.25;98400.38;5081979;28;20065;-86
2023/11/18 09:56:09;;;;;;;;;;;;;;;19.72;28.45;98409.78;5082315;28;20384;-87
2023/11/18 09:58:44;;;;;;;;;;;;;;;18.50;29.96;98420.09;5089336;28;19932;-86
2023/11/18 10:01:13;;;;;;;;;;;;;;;18.95;29.54;98412.38;5081112;28;20015;-88
2023/11/18 10:03:41;;;;;;;;;;;;;;;19.66;28.85;98408.59;5084303;28;19924;-86
2023/11/18 10:06:08;;;;;;;;;;;;;;;20.32;27.77;98411.81;5086188;28;19951;-90
2023/11/18 10:08:37;;;;;;;;;;;;;;;19.86;28.08;98412.59;5074148;28;19920;-88
2023/11/18 10:11:09;;;;;;;;;;;;;;;21.16;26.24;98407.97;5094428;28;19929;-87
2023/11/18 10:13:40;;;;;;;;;;;;;;;20.05;27.98;98414.19;5083140;28;19916;-89
2023/11/18 10:16:07;;;;;;;;;;;;;;;18.98;29.42;98440.19;5093011;28;20368;-88
2023/11/18 10:18:37;;;;;;;;;;;;;;;15.99;33.64;98445.31;5096366;28;19932;-88
2023/11/18 10:21:11;;;;;;;;;;;;;;;15.37;34.55;98454.88;5099765;28;19924;-89
2023/11/18 10:23:37;;;;;;;;;;;;;;;13.21;38.77;98451.03;5105250;28;19924;-89
2023/11/18 10:26:04;;;;;;;;;;;;;;;15.44;34.48;98450.31;5080843;28;19935;-88
2023/11/18 10:28:36;;;;;;;;;;;;;;;16.76;32.24;98459.56;5087363;28;19920;-87
2023/11/18 10:31:04;;;;;;;;;;;;;;;16.29;32.85;98465.63;5087509;28;19923;-87
2023/11/18 10:33:37;;;;;;;;;;;;;;;15.31;34.84;98467.44;5086273;28;19995;-88
2023/11/18 10:36:04;;;;;;;;;;;;;;;17.31;31.36;98464.25;5089681;28;19942;-87
2023/11/18 10:38:31;;;;;;;;;;;;;;;16.79;31.60;98470.72;5089743;28;19916;-89
2023/11/18 10:40:58;;;;;;;;;;;;;;;16.06;32.51;98473.13;5099336;28;19919;-88
2023/11/18 10:43:25;;;;;;;;;;;;;;;16.20;32.82;98482.47;5094191;28;19928;-88
2023/11/18 10:45:52;;;;;;;;;;;;;;;18.21;29.51;98476.63;5085224;28;20024;-88
2023/11/18 10:48:20;;;;;;;;;;;;;;;17.67;30.25;98476.53;5087377;28;20341;-87
2023/11/18 10:50:49;;;;;;;;;;;;;;;17.34;30.75;98490.44;5093688;28;20371;-88
2023/11/18 10:53:18;;;;;;;;;;;;;;;15.64;33.11;98487.03;5090771;28;19924;-86
2023/11/18 10:55:44;;;;;;;;;;;;;;;17.35;30.80;98484.50;5090665;28;20398;-86
2023/11/18 10:58:11;;;;;;;;;;;;;;;17.93;29.47;98484.72;5094171;28;19929;-88
2023/11/18 11:00:52;;;;;;;;;;;;;;;18.43;28.94;98489.53;5091264;28;19920;-89
2023/11/18 11:03:18;;;;;;;;;;;;;;;20.02;26.47;98496.59;5088816;28;20395;-88
2023/11/18 11:05:44;;;;;;;;;;;;;;;19.67;26.83;98488.19;5094708;28;19916;-89
2023/11/18 11:08:15;;;;;;;;;;;;;;;19.47;27.08;98500.06;5090989;28;20368;-86
2023/11/18 11:10:42;;;;;;;;;;;;;;;18.92;27.69;98499.41;5087487;28;19934;-87
2023/11/18 11:13:09;;;;;;;;;;;;;;;20.19;26.45;98503.38;5084511;28;19913;-88
2023/11/18 11:15:39;;;;;;;;;;;;;;;20.25;26.37;98501.03;5091801;28;19916;-89
2023/11/18 11:18:14;;;;;;;;;;;;;;;20.70;25.54;98510.56;5092018;28;19924;-89
2023/11/18 11:21:04;;;;;;;;;;;;;;;20.91;24.74;98511.31;5091870;28;20425;-88
2023/11/18 11:23:57;;;;;;;;;;;;;;;21.47;24.58;98512.38;5092390;28;19924;-88
2023/11/18 11:26:29;;;;;;;;;;;;;;;21.74;23.78;98519.81;5085724;28;19927;-88
2023/11/18 11:29:07;;;;;;;;;;;;;;;23.03;22.54;98510.03;5091273;28;20280;-89
2023/11/18 11:31:33;;;;;;;;;;;;;;;21.48;23.76;98517.53;5092210;28;19943;-89
2023/11/18 11:34:05;;;;;;;;;;;;;;;21.66;23.96;98529.41;5090293;28;20303;-86
2023/11/18 11:36:38;;;;;;;;;;;;;;;20.51;25.16;98526.50;5090248;28;19927;-86
2023/11/18 11:39:10;;;;;;;;;;;;;;;18.74;26.77;98538.22;5089435;28;19920;-86
2023/11/18 11:41:37;;;;;;;;;;;;;;;17.10;28.92;98541.66;5091722;28;20389;-86
2023/11/18 11:44:05;;;;;;;;;;;;;;;17.53;29.02;98546.59;5089537;28;19924;-85
2023/11/18 11:46:37;;;;;;;;;;;;;;;16.51;29.99;98553.47;5089599;28;19924;-89
2023/11/18 11:49:27;;;;;;;;;;;;;;;15.42;32.05;98563.31;5090270;28;20019;-87
2023/11/18 11:51:59;;;;;;;;;;;;;;;16.17;30.59;98568.31;5091800;28;19928;-88
2023/11/18 11:54:36;;;;;;;;;;;;;;;16.58;30.20;98559.13;5093419;28;19947;-87
2023/11/18 11:57:05;;;;;;;;;;;;;;;19.55;25.69;98560.97;5090117;28;20330;-87
2023/11/18 11:59:37;;;;;;;;;;;;;;;19.88;25.17;98557.09;5093708;28;20030;-87
2023/11/18 12:02:07;;;;;;;;;;;;;;;18.30;26.97;98565.25;5089865;28;19920;-87
2023/11/18 12:04:37;;;;;;;;;;;;;;;19.46;25.37;98577.25;5085447;28;19924;-91
2023/11/18 12:07:09;;;;;;;;;;;;;;;19.65;25.70;98576.13;5089665;28;19920;-93
2023/11/18 12:09:38;;;;;;;;;;;;;;;20.46;24.23;98576.34;5082085;28;20356;-90
2023/11/18 12:12:09;;;;;;;;;;;;;;;18.65;26.78;98579.47;5104492;28;19924;-90
2023/11/18 12:14:49;;;;;;;;;;;;;;;20.07;25.04;98579.03;5084171;28;19935;-90
2023/11/18 12:17:20;;;;;;;;;;;;;;;20.49;24.48;98583.91;5065585;28;20299;-90
2023/11/18 12:19:48;;;;;;;;;;;;;;;19.84;25.76;98587.72;5094117;28;20367;-91
2023/11/18 12:22:24;;;;;;;;;;;;;;;20.92;23.69;98579.09;5095302;28;19920;-89
2023/11/18 12:24:59;;;;;;;;;;;;;;;20.75;24.07;98594.66;5089298;28;20015;-89
2023/11/18 12:27:40;;;;;;;;;;;;;;;20.10;25.07;98591.38;5085652;28;19924;-87
2023/11/18 12:30:15;;;;;;;;;;;;;;;20.72;24.38;98595.47;5087827;28;20414;-90
2023/11/18 12:33:01;;;;;;;;;;;;;;;20.76;24.31;98592.66;5083771;28;19930;-89
2023/11/18 12:35:27;;;;;;;;;;;;;;;20.38;24.53;98600.63;5083181;28;19986;-89
2023/11/18 12:38:12;;;;;;;;;;;;;;;20.95;23.92;98595.06;5088806;28;19927;-93
2023/11/18 12:41:02;;;;;;;;;;;;;;;21.58;23.09;98597.72;5084470;28;19924;-89
2023/11/18 12:43:29;;;;;;;;;;;;;;;20.32;24.90;98604.22;5082473;28;19924;-84
2023/11/18 12:46:14;;;;;;;;;;;;;;;19.99;25.18;98608.88;5087880;28;19973;-86
2023/11/18 12:48:43;;;;;;;;;;;;;;;20.63;24.22;98609.03;5084819;28;19924;-87
2023/11/18 12:51:19;;;;;;;;;;;;;;;21.48;23.51;98606.94;5086424;28;19920;-90
2023/11/18 12:53:48;;;;;;;;;;;;;;;21.61;22.88;98610.88;5083755;28;19935;-89
2023/11/18 12:56:16;;;;;;;;;;;;;;;19.16;26.66;98624.75;5078790;28;19971;-91